createdAt,value
2022-11-14T00:00:47.846Z,7.50
2022-11-14T00:03:32.812Z,7.65
2022-11-14T00:06:18.983Z,7.30
2022-11-14T00:09:04.116Z,7.47
2022-11-14T00:11:49.202Z,7.72
2022-11-14T00:14:34.254Z,7.43
2022-11-14T00:17:19.322Z,7.10
2022-11-14T00:20:05.648Z,7.50
2022-11-14T00:22:50.713Z,7.47
2022-11-14T00:25:35.948Z,7.45
2022-11-14T00:28:21.151Z,7.30
2022-11-14T00:31:06.108Z,6.68
2022-11-14T00:33:51.185Z,6.60
2022-11-14T00:36:36.530Z,7.13
2022-11-14T00:39:21.329Z,7.05
2022-11-14T00:42:06.209Z,6.60
2022-11-14T00:44:51.357Z,7.15
2022-11-14T00:47:36.958Z,7.00
2022-11-14T00:50:22.126Z,6.87
2022-11-14T00:53:07.028Z,7.20
2022-11-14T00:55:52.223Z,6.57
2022-11-14T00:58:37.329Z,6.60
2022-11-14T01:01:22.591Z,7.53
2022-11-14T01:04:07.507Z,6.57
2022-11-14T01:06:52.448Z,7.00
2022-11-14T01:09:37.611Z,6.40
2022-11-14T01:12:22.779Z,7.25
2022-11-14T01:15:08.533Z,6.53
2022-11-14T01:17:53.713Z,7.33
2022-11-14T01:20:41.392Z,6.38
2022-11-14T01:23:26.496Z,6.57
2022-11-14T01:26:13.985Z,6.63
2022-11-14T01:28:59.007Z,6.00
2022-11-14T01:31:44.066Z,6.57
2022-11-14T01:34:29.479Z,5.82
2022-11-14T01:37:14.614Z,7.20
2022-11-14T01:39:59.423Z,6.15
2022-11-14T01:43:18.533Z,6.25
2022-11-14T01:46:04.887Z,6.43
2022-11-14T01:48:53.996Z,6.28
2022-11-14T01:51:42.749Z,6.28
2022-11-14T01:54:31.658Z,6.38
2022-11-14T01:57:19.834Z,6.05
2022-11-14T02:00:08.487Z,6.27
2022-11-14T02:02:54.624Z,6.68
2022-11-14T02:05:41.030Z,6.20
2022-11-14T02:08:26.086Z,5.90
2022-11-14T02:11:12.387Z,6.30
2022-11-14T02:13:58.988Z,5.87
2022-11-14T02:17:00.769Z,6.50
2022-11-14T02:19:55.777Z,6.25
2022-11-14T02:22:42.413Z,6.50
2022-11-14T02:25:27.647Z,6.40
2022-11-14T02:28:12.549Z,6.53
2022-11-14T02:30:57.614Z,6.35
2022-11-14T02:33:43.067Z,5.97
2022-11-14T02:36:28.352Z,6.88
2022-11-14T02:39:13.556Z,6.07
2022-11-14T02:41:58.671Z,5.97
2022-11-14T02:44:43.604Z,6.53
2022-11-14T02:47:28.502Z,6.10
2022-11-14T02:50:14.328Z,6.50
2022-11-14T02:52:59.533Z,6.18
2022-11-14T02:55:44.605Z,5.70
2022-11-14T02:58:30.087Z,6.25
2022-11-14T03:01:20.677Z,6.13
2022-11-14T03:04:06.314Z,5.75
2022-11-14T03:06:51.475Z,6.45
2022-11-14T03:09:36.517Z,5.87
2022-11-14T03:12:21.565Z,5.75
2022-11-14T03:15:07.526Z,5.82
2022-11-14T03:17:52.775Z,5.78
2022-11-14T03:20:38.253Z,6.38
2022-11-14T03:23:23.073Z,6.63
2022-11-14T03:26:10.152Z,5.43
2022-11-14T03:28:55.240Z,5.13
2022-11-14T03:31:40.061Z,5.68
2022-11-14T03:34:25.153Z,5.93
2022-11-14T03:37:10.256Z,5.87
2022-11-14T03:39:55.046Z,5.20
2022-11-14T03:42:40.156Z,5.60
2022-11-14T03:45:25.189Z,5.53
2022-11-14T03:48:10.297Z,6.15
2022-11-14T03:50:55.510Z,5.50
2022-11-14T03:53:40.357Z,5.85
2022-11-14T03:56:25.438Z,5.60
2022-11-14T03:59:10.727Z,6.15
2022-11-14T04:01:56.110Z,5.93
2022-11-14T04:04:41.370Z,5.00
2022-11-14T04:07:26.566Z,6.35
2022-11-14T04:10:11.595Z,6.22
2022-11-14T04:12:56.553Z,5.68
2022-11-14T04:15:41.712Z,5.75
2022-11-14T04:18:27.066Z,6.30
2022-11-14T04:21:12.062Z,6.47
2022-11-14T04:23:56.964Z,6.50
2022-11-14T04:26:41.960Z,5.88
2022-11-14T04:29:27.001Z,6.13
2022-11-14T04:32:12.030Z,5.97
2022-11-14T04:34:57.173Z,6.03
2022-11-14T04:37:42.178Z,5.93
2022-11-14T04:40:27.348Z,5.97
2022-11-14T04:43:12.382Z,5.85
2022-11-14T04:45:57.152Z,6.03
2022-11-14T04:48:42.376Z,5.75
2022-11-14T04:51:27.389Z,5.53
2022-11-14T04:54:12.611Z,6.10
2022-11-14T04:56:57.525Z,5.30
2022-11-14T04:59:42.530Z,6.30
2022-11-14T05:02:31.066Z,5.88
2022-11-14T05:05:15.908Z,6.72
2022-11-14T05:08:00.933Z,5.90
2022-11-14T05:10:46.036Z,5.95
2022-11-14T05:13:31.169Z,5.87
2022-11-14T05:16:16.294Z,6.53
2022-11-14T05:19:01.089Z,6.07
2022-11-14T05:21:46.350Z,6.22
2022-11-14T05:24:31.267Z,6.22
2022-11-14T05:27:16.324Z,5.80
2022-11-14T05:30:01.275Z,5.75
2022-11-14T05:32:46.409Z,5.93
2022-11-14T05:35:31.574Z,5.72
2022-11-14T05:38:16.735Z,6.38
2022-11-14T05:41:09.413Z,6.37
2022-11-14T05:43:54.707Z,5.85
2022-11-14T05:46:39.682Z,6.55
2022-11-14T05:49:24.757Z,6.45
2022-11-14T05:52:10.422Z,6.18
2022-11-14T05:54:55.281Z,6.13
2022-11-14T05:57:40.550Z,6.07
2022-11-14T06:00:26.824Z,5.68
2022-11-14T06:03:11.782Z,6.43
2022-11-14T06:05:56.472Z,6.78
2022-11-14T06:08:42.281Z,5.97
2022-11-14T06:11:27.209Z,6.32
2022-11-14T06:14:12.257Z,5.97
2022-11-14T06:16:57.172Z,6.38
2022-11-14T06:19:42.131Z,5.85
2022-11-14T06:22:27.188Z,5.60
2022-11-14T06:25:12.358Z,6.57
2022-11-14T06:27:58.937Z,7.10
2022-11-14T06:30:44.149Z,7.85
2022-11-14T06:33:33.871Z,6.20
2022-11-14T06:36:19.030Z,6.40
2022-11-14T06:39:04.009Z,5.80
2022-11-14T06:41:49.108Z,6.10
2022-11-14T06:44:34.321Z,6.43
2022-11-14T06:47:19.363Z,6.20
2022-11-14T06:50:05.768Z,5.63
2022-11-14T06:52:50.905Z,6.03
2022-11-14T06:55:35.957Z,5.95
2022-11-14T06:58:21.359Z,6.95
2022-11-14T07:01:08.248Z,6.22
2022-11-14T07:03:53.202Z,6.20
2022-11-14T07:06:38.382Z,7.80
2022-11-14T07:09:23.518Z,7.70
2022-11-14T07:12:09.386Z,6.80
2022-11-14T07:14:54.301Z,7.00
2022-11-14T07:17:39.535Z,7.03
2022-11-14T07:20:24.759Z,7.57
2022-11-14T07:23:09.713Z,7.05
2022-11-14T07:25:54.629Z,7.15
2022-11-14T07:28:41.907Z,6.72
2022-11-14T07:31:26.732Z,6.17
2022-11-14T07:34:11.889Z,5.95
2022-11-14T07:36:56.833Z,7.25
2022-11-14T07:39:41.816Z,6.80
2022-11-14T07:42:29.812Z,6.70
2022-11-14T07:45:15.602Z,6.60
2022-11-14T07:48:01.910Z,6.85
2022-11-14T07:50:47.512Z,7.63
2022-11-14T07:53:33.334Z,8.20
2022-11-14T07:56:18.050Z,7.85
2022-11-14T07:59:03.139Z,7.63
2022-11-14T08:01:47.879Z,7.28
2022-11-14T08:04:32.980Z,7.68
2022-11-14T08:07:18.244Z,8.18
2022-11-14T08:10:03.573Z,8.95
2022-11-14T08:13:17.538Z,8.63
2022-11-14T08:16:12.252Z,7.35
2022-11-14T08:18:57.926Z,8.85
2022-11-14T08:21:43.850Z,8.48
2022-11-14T08:24:28.608Z,6.40
2022-11-14T08:27:13.683Z,8.57
2022-11-14T08:29:58.654Z,8.35
2022-11-14T08:32:43.702Z,8.75
2022-11-14T08:35:29.474Z,8.60
2022-11-14T08:38:14.427Z,7.95
2022-11-14T08:41:02.247Z,8.67
2022-11-14T08:43:47.181Z,8.32
2022-11-14T08:46:32.417Z,8.60
2022-11-14T08:49:17.627Z,6.68
2022-11-14T08:52:02.686Z,6.22
2022-11-14T08:54:47.962Z,7.10
2022-11-14T08:57:32.961Z,8.40
2022-11-14T09:00:18.239Z,7.90
2022-11-14T09:03:08.402Z,8.23
2022-11-14T09:05:53.234Z,6.80
2022-11-14T09:08:38.485Z,7.60
2022-11-14T09:11:23.812Z,6.95
2022-11-14T09:14:09.137Z,7.93
2022-11-14T09:16:54.292Z,7.65
2022-11-14T09:19:39.268Z,7.07
2022-11-14T09:22:24.399Z,7.83
2022-11-14T09:25:09.553Z,7.68
2022-11-14T09:27:55.340Z,7.30
2022-11-14T09:30:41.420Z,6.63
2022-11-14T09:33:26.686Z,6.30
2022-11-14T09:36:15.647Z,7.13
2022-11-14T09:39:00.501Z,7.35
2022-11-14T09:42:17.656Z,6.10
2022-11-14T09:45:06.000Z,6.28
2022-11-14T09:48:00.529Z,7.47
2022-11-14T09:50:53.328Z,6.67
2022-11-14T09:53:42.042Z,7.47
2022-11-14T09:56:26.997Z,5.97
2022-11-14T09:59:13.084Z,6.05
2022-11-14T10:02:13.965Z,6.20
2022-11-14T10:05:18.421Z,6.60
2022-11-14T10:08:09.121Z,5.78
2022-11-14T10:11:13.354Z,5.00
2022-11-14T10:14:17.066Z,3.85
2022-11-14T10:17:48.145Z,5.72
2022-11-14T10:20:54.407Z,5.57
2022-11-14T10:23:56.142Z,6.13
2022-11-14T10:27:10.571Z,5.47
2022-11-14T10:30:18.967Z,5.45
2022-11-14T10:33:22.240Z,6.28
2022-11-14T10:36:33.312Z,5.67
2022-11-14T10:39:24.350Z,6.30
2022-11-14T10:42:26.304Z,6.30
2022-11-14T10:45:23.582Z,6.47
2022-11-14T10:48:34.031Z,6.85
2022-11-14T10:51:37.505Z,7.00
2022-11-14T10:54:33.730Z,6.43
2022-11-14T10:57:21.557Z,7.78
2022-11-14T11:00:15.961Z,7.28
2022-11-14T11:03:00.723Z,6.28
2022-11-14T11:05:56.571Z,4.20
2022-11-14T11:09:01.897Z,8.25
2022-11-14T11:12:03.876Z,4.28
2022-11-14T11:15:07.726Z,6.63
2022-11-14T11:17:59.745Z,3.63
2022-11-14T11:20:44.840Z,6.63
2022-11-14T11:23:29.844Z,7.85
2022-11-14T11:26:29.301Z,7.72
2022-11-14T11:29:17.411Z,8.20
2022-11-14T11:32:02.794Z,8.85
2022-11-14T11:34:48.053Z,7.50
2022-11-14T11:37:40.060Z,8.82
2022-11-14T11:40:28.038Z,8.60
2022-11-14T11:43:43.157Z,9.32
2022-11-14T11:46:52.273Z,8.80
2022-11-14T11:49:47.397Z,4.53
2022-11-14T11:52:48.376Z,9.52
2022-11-14T11:55:40.087Z,7.13
2022-11-14T11:58:29.477Z,8.90
2022-11-14T12:01:14.990Z,9.10
2022-11-14T12:04:00.652Z,8.83
2022-11-14T12:06:55.751Z,8.48
2022-11-14T12:13:14.478Z,8.27
2022-11-14T12:16:10.156Z,7.85
2022-11-14T12:19:22.039Z,8.17
2022-11-14T12:22:25.166Z,8.05
2022-11-14T12:25:22.270Z,8.70
2022-11-14T12:28:36.344Z,9.52
2022-11-14T12:31:21.423Z,8.55
2022-11-14T12:34:27.226Z,9.90
2022-11-14T12:37:28.496Z,7.78
2022-11-14T12:40:33.611Z,9.15
2022-11-14T12:43:38.531Z,8.93
2022-11-14T12:46:23.757Z,8.90
2022-11-14T12:49:36.734Z,7.83
2022-11-14T12:52:40.162Z,8.60
2022-11-14T12:55:25.041Z,8.05
2022-11-14T12:58:39.167Z,8.50
2022-11-14T13:01:27.195Z,9.13
2022-11-14T13:04:23.110Z,8.00
2022-11-14T13:07:43.141Z,9.23
2022-11-14T13:10:36.939Z,9.18
2022-11-14T13:13:41.059Z,7.97
2022-11-14T13:16:49.992Z,8.40
2022-11-14T13:20:07.893Z,8.30
2022-11-14T13:22:52.657Z,6.95
2022-11-14T13:25:37.427Z,6.68
2022-11-14T13:28:37.990Z,9.05
2022-11-14T13:31:43.680Z,8.15
2022-11-14T13:34:28.817Z,8.87
2022-11-14T13:37:22.806Z,9.10
2022-11-14T13:40:18.573Z,8.70
2022-11-14T13:43:47.495Z,9.52
2022-11-14T13:47:03.276Z,8.85
2022-11-14T13:50:24.873Z,8.60
2022-11-14T13:53:16.829Z,8.55
2022-11-14T13:56:04.591Z,7.75
2022-11-14T13:59:14.372Z,8.65
2022-11-14T14:02:20.887Z,8.85
2022-11-14T14:05:24.467Z,8.00
2022-11-14T14:08:20.382Z,8.45
2022-11-14T14:11:27.681Z,7.57
2022-11-14T14:14:42.028Z,8.32
2022-11-14T14:17:34.981Z,8.45
2022-11-14T14:20:35.840Z,8.60
2022-11-14T14:23:52.074Z,8.57
2022-11-14T14:26:44.691Z,7.82
2022-11-14T14:29:48.855Z,8.90
2022-11-14T14:32:33.759Z,7.30
2022-11-14T14:35:27.897Z,8.00
2022-11-14T14:38:21.481Z,8.43
2022-11-14T14:41:07.147Z,7.60
2022-11-14T14:43:55.509Z,7.32
2022-11-14T14:46:40.484Z,6.30
2022-11-14T14:49:31.858Z,6.33
2022-11-14T14:52:22.145Z,8.02
2022-11-14T14:55:17.798Z,7.13
2022-11-14T14:58:22.661Z,5.55
2022-11-14T15:01:14.262Z,3.22
2022-11-14T15:04:08.089Z,6.47
2022-11-14T15:06:57.389Z,7.00
2022-11-14T15:09:52.850Z,6.20
2022-11-14T15:12:40.273Z,8.40
2022-11-14T15:15:26.827Z,6.80
2022-11-14T15:18:22.329Z,7.90
2022-11-14T15:21:15.871Z,8.57
2022-11-14T15:24:12.385Z,7.90
2022-11-14T15:26:57.279Z,7.97
2022-11-14T15:29:47.432Z,8.38
2022-11-14T15:32:33.549Z,7.97
2022-11-14T15:35:23.876Z,8.23
2022-11-14T15:38:42.427Z,8.88
2022-11-14T15:41:23.622Z,7.53
2022-11-14T15:44:31.902Z,8.05
2022-11-14T15:47:36.480Z,7.87
2022-11-14T15:50:27.386Z,7.68
2022-11-14T15:53:24.507Z,7.65
2022-11-14T15:56:13.728Z,8.80
2022-11-14T15:58:58.925Z,7.63
2022-11-14T16:01:47.048Z,8.60
2022-11-14T16:04:36.313Z,6.40
2022-11-14T16:07:22.260Z,7.55
2022-11-14T16:10:25.098Z,7.45
2022-11-14T16:13:10.955Z,8.40
2022-11-14T16:15:56.127Z,7.63
2022-11-14T16:18:41.254Z,8.18
2022-11-14T16:21:26.666Z,7.88
2022-11-14T16:24:16.018Z,8.00
2022-11-14T16:27:01.151Z,6.85
2022-11-14T16:29:45.973Z,9.07
2022-11-14T16:32:31.122Z,11.10
2022-11-14T16:35:18.213Z,9.38
2022-11-14T16:38:03.223Z,10.50
2022-11-14T16:40:48.232Z,7.38
2022-11-14T16:43:33.459Z,8.40
2022-11-14T16:46:18.639Z,9.25
2022-11-14T16:49:03.624Z,9.43
2022-11-14T16:51:50.631Z,9.40
2022-11-14T16:54:36.140Z,8.07
2022-11-14T16:57:21.456Z,8.40
2022-11-14T17:00:10.511Z,9.00
2022-11-14T17:02:55.768Z,8.68
2022-11-14T17:05:45.281Z,10.60
2022-11-14T17:08:30.151Z,13.98
2022-11-14T17:11:15.166Z,13.03
2022-11-14T17:14:00.256Z,9.05
2022-11-14T17:16:46.608Z,9.38
2022-11-14T17:19:31.510Z,8.15
2022-11-14T17:22:18.180Z,8.43
2022-11-14T17:25:03.282Z,9.50
2022-11-14T17:27:48.976Z,9.02
2022-11-14T17:30:33.839Z,8.70
2022-11-14T17:33:18.778Z,8.85
2022-11-14T17:36:09.012Z,10.23
2022-11-14T17:38:55.120Z,9.60
2022-11-14T17:41:39.918Z,9.38
2022-11-14T17:44:25.137Z,8.45
2022-11-14T17:47:10.355Z,9.90
2022-11-14T17:49:55.215Z,8.98
2022-11-14T17:52:41.522Z,7.80
2022-11-14T17:55:26.382Z,7.57
2022-11-14T17:58:12.551Z,8.20
2022-11-14T18:00:58.912Z,7.90
2022-11-14T18:03:43.998Z,8.10
2022-11-14T18:06:29.119Z,7.90
2022-11-14T18:09:14.716Z,8.05
2022-11-14T18:11:59.622Z,7.95
2022-11-14T18:14:44.801Z,7.15
2022-11-14T18:17:31.512Z,7.40
2022-11-14T18:20:16.774Z,6.67
2022-11-14T18:23:01.739Z,7.20
2022-11-14T18:25:46.875Z,6.90
2022-11-14T18:28:32.195Z,6.25
2022-11-14T18:31:17.397Z,5.55
2022-11-14T18:34:02.796Z,6.80
2022-11-14T18:36:48.259Z,5.93
2022-11-14T18:39:33.437Z,5.97
2022-11-14T18:42:18.561Z,6.60
2022-11-14T18:45:03.618Z,7.38
2022-11-14T18:47:48.450Z,6.77
2022-11-14T18:50:33.663Z,6.45
2022-11-14T18:53:18.838Z,6.57
2022-11-14T18:56:12.391Z,6.00
2022-11-14T18:58:57.801Z,6.07
2022-11-14T19:01:43.076Z,6.03
2022-11-14T19:04:27.999Z,6.32
2022-11-14T19:07:14.350Z,6.53
2022-11-14T19:09:59.116Z,6.72
2022-11-14T19:12:47.227Z,6.22
2022-11-14T19:15:32.676Z,6.70
2022-11-14T19:18:17.339Z,6.65
2022-11-14T19:21:03.783Z,6.53
2022-11-14T19:23:50.314Z,6.70
2022-11-14T19:26:35.567Z,7.18
2022-11-14T19:29:20.491Z,6.50
2022-11-14T19:32:05.982Z,6.78
2022-11-14T19:34:50.678Z,8.50
2022-11-14T19:37:35.863Z,10.63
2022-11-14T19:40:20.778Z,9.20
2022-11-14T19:43:07.203Z,8.27
2022-11-14T19:45:52.216Z,8.15
2022-11-14T19:48:38.195Z,8.30
2022-11-14T19:51:23.079Z,7.38
2022-11-14T19:54:10.114Z,5.93
2022-11-14T19:56:55.340Z,6.50
2022-11-14T19:59:40.401Z,6.65
2022-11-14T20:02:28.323Z,5.97
2022-11-14T20:05:13.341Z,5.70
2022-11-14T20:07:58.262Z,5.57
2022-11-14T20:10:53.777Z,5.70
2022-11-14T20:13:41.955Z,6.43
2022-11-14T20:16:32.246Z,6.07
2022-11-14T20:19:17.072Z,6.63
2022-11-14T20:22:02.148Z,5.70
2022-11-14T20:24:47.421Z,6.77
2022-11-14T20:27:32.559Z,5.78
2022-11-14T20:30:17.559Z,5.50
2022-11-14T20:33:02.374Z,5.97
2022-11-14T20:35:47.714Z,5.93
2022-11-14T20:38:33.085Z,6.00
2022-11-14T20:41:19.205Z,6.93
2022-11-14T20:44:04.415Z,6.35
2022-11-14T20:46:49.244Z,5.88
2022-11-14T20:49:34.487Z,5.60
2022-11-14T20:52:19.740Z,5.57
2022-11-14T20:55:11.419Z,6.47
2022-11-14T20:57:56.641Z,5.95
2022-11-14T21:00:41.826Z,6.18
2022-11-14T21:03:27.393Z,5.40
2022-11-14T21:06:14.159Z,6.23
2022-11-14T21:08:59.339Z,6.00
2022-11-14T21:11:44.634Z,6.70
2022-11-14T21:14:29.905Z,6.32
2022-11-14T21:17:14.993Z,6.60
2022-11-14T21:20:00.145Z,7.23
2022-11-14T21:22:45.290Z,6.43
2022-11-14T21:25:30.469Z,6.82
2022-11-14T21:28:15.546Z,7.30
2022-11-14T21:31:00.855Z,6.32
2022-11-14T21:33:47.294Z,6.47
2022-11-14T21:36:48.161Z,5.43
2022-11-14T21:39:33.382Z,5.95
2022-11-14T21:42:19.007Z,6.78
2022-11-14T21:45:04.162Z,7.20
2022-11-14T21:47:49.046Z,7.47
2022-11-14T21:50:34.164Z,7.20
2022-11-14T21:53:19.341Z,7.70
2022-11-14T21:56:15.001Z,9.48
2022-11-14T21:59:13.842Z,8.23
2022-11-14T22:02:17.709Z,8.77
2022-11-14T22:05:03.045Z,8.45
2022-11-14T22:07:47.938Z,7.63
2022-11-14T22:10:33.170Z,8.85
2022-11-14T22:13:18.485Z,7.82
2022-11-14T22:16:05.347Z,7.80
2022-11-14T22:18:54.313Z,7.50
2022-11-14T22:21:39.492Z,7.35
2022-11-14T22:24:24.879Z,7.78
2022-11-14T22:27:09.769Z,8.32
2022-11-14T22:29:54.543Z,7.50
2022-11-14T22:32:39.847Z,7.80
2022-11-14T22:35:24.889Z,8.07
2022-11-14T22:38:09.943Z,7.57
2022-11-14T22:40:56.320Z,6.43
2022-11-14T22:43:41.329Z,7.30
2022-11-14T22:46:27.133Z,6.57
2022-11-14T22:49:14.207Z,6.60
2022-11-14T22:52:02.170Z,6.50
2022-11-14T22:54:47.482Z,6.63
2022-11-14T22:57:32.633Z,6.03
2022-11-14T23:00:18.319Z,6.57
2022-11-14T23:03:03.362Z,6.40
2022-11-14T23:05:48.788Z,6.57
2022-11-14T23:08:34.648Z,6.38
2022-11-14T23:11:22.326Z,6.70
2022-11-14T23:14:07.233Z,6.55
2022-11-14T23:16:52.350Z,6.38
2022-11-14T23:19:37.385Z,6.65
2022-11-14T23:22:22.598Z,7.13
2022-11-14T23:25:07.853Z,6.27
2022-11-14T23:27:53.632Z,6.97
2022-11-14T23:30:38.448Z,6.20
2022-11-14T23:33:23.518Z,5.85
2022-11-14T23:36:08.588Z,5.55
2022-11-14T23:38:53.804Z,5.63
2022-11-14T23:41:38.572Z,5.72
2022-11-14T23:44:23.597Z,6.00
2022-11-14T23:47:08.542Z,5.82
2022-11-14T23:49:53.547Z,6.20
2022-11-14T23:52:38.621Z,5.07
2022-11-14T23:55:24.076Z,6.00
2022-11-14T23:58:09.098Z,5.13
